createdAt,value
2018-11-22T00:14:07.017Z,27.40
2018-11-22T00:22:17.472Z,27.90
2018-11-22T00:24:45.743Z,28.17
2018-11-22T00:27:14.117Z,27.87
2018-11-22T00:29:42.465Z,30.07
2018-11-22T00:32:10.722Z,27.63
2018-11-22T00:34:39.467Z,31.17
2018-11-22T00:37:07.834Z,28.27
2018-11-22T00:39:36.020Z,29.37
2018-11-22T00:42:04.297Z,28.10
2018-11-22T00:44:32.480Z,28.70
2018-11-22T00:47:01.249Z,29.37
2018-11-22T00:49:29.436Z,31.30
2018-11-22T00:51:57.645Z,27.10
2018-11-22T00:54:26.467Z,29.07
2018-11-22T00:56:55.065Z,27.83
2018-11-22T00:59:23.191Z,27.90
2018-11-22T01:01:51.341Z,28.80
2018-11-22T01:04:19.618Z,30.37
2018-11-22T01:06:47.852Z,28.73
2018-11-22T01:09:16.847Z,29.57
2018-11-22T01:11:44.940Z,29.10
2018-11-22T01:14:13.153Z,28.80
2018-11-22T01:16:41.894Z,27.83
2018-11-22T01:19:10.349Z,28.77
2018-11-22T01:21:38.596Z,28.20
2018-11-22T01:24:06.913Z,28.30
2018-11-22T01:26:35.405Z,29.67
2018-11-22T01:29:03.817Z,28.23
2018-11-22T01:31:32.042Z,27.97
2018-11-22T01:34:00.249Z,29.90
2018-11-22T01:36:28.413Z,28.33
2018-11-22T01:38:56.583Z,29.37
2018-11-22T01:41:24.874Z,26.73
2018-11-22T01:43:53.218Z,28.87
2018-11-22T12:22:05.427Z,37.50
2018-11-22T12:24:32.848Z,36.60
2018-11-22T12:27:00.941Z,39.93
2018-11-22T12:29:28.312Z,38.60
2018-11-22T12:31:58.468Z,36.23
2018-11-22T12:34:30.536Z,36.63
2018-11-22T12:37:03.920Z,36.53
2018-11-22T12:39:31.503Z,37.03
2018-11-22T12:41:58.930Z,35.97
2018-11-22T12:44:26.506Z,36.23
2018-11-22T12:46:53.982Z,36.00
2018-11-22T12:49:21.406Z,38.63
2018-11-22T12:51:48.846Z,38.27
2018-11-22T12:54:17.123Z,36.60
2018-11-22T12:56:47.346Z,36.83
2018-11-22T12:59:14.848Z,37.80
2018-11-22T13:01:42.437Z,37.80
2018-11-22T13:04:09.961Z,37.63
2018-11-22T13:06:37.545Z,37.07
2018-11-22T13:09:07.327Z,38.03
2018-11-22T13:11:34.951Z,37.73
2018-11-22T13:14:02.448Z,39.93
2018-11-22T13:16:29.923Z,40.00
2018-11-22T13:18:59.459Z,41.70
2018-11-22T13:21:24.908Z,39.77
2018-11-22T13:23:52.512Z,41.07
2018-11-22T13:26:20.132Z,42.20
2018-11-22T13:28:47.583Z,40.37
2018-11-22T13:31:15.281Z,39.40
2018-11-22T13:33:42.810Z,40.80
2018-11-22T13:36:10.327Z,40.60
2018-11-22T13:38:38.060Z,40.30
2018-11-22T13:41:05.567Z,43.70
2018-11-22T13:43:33.035Z,39.90
2018-11-22T13:46:00.530Z,40.23
2018-11-22T13:48:28.328Z,41.03
2018-11-22T13:50:55.914Z,39.60
2018-11-22T13:53:23.344Z,44.17
2018-11-22T13:55:50.808Z,40.80
2018-11-22T13:58:18.273Z,39.60
2018-11-22T14:00:45.754Z,42.47
2018-11-22T14:03:13.225Z,41.67
2018-11-22T14:05:42.168Z,39.87
2018-11-22T14:08:09.664Z,42.27
2018-11-22T14:10:37.135Z,41.90
2018-11-22T14:13:04.995Z,43.33
2018-11-22T14:15:32.436Z,42.43
2018-11-22T14:18:01.533Z,44.30
2018-11-22T14:20:30.391Z,41.40
2018-11-22T14:22:57.875Z,41.20
2018-11-22T14:25:25.480Z,41.23
2018-11-22T14:27:53.002Z,39.63
2018-11-22T14:30:22.081Z,43.33
2018-11-22T14:32:50.390Z,42.47
2018-11-22T14:35:22.422Z,43.83
2018-11-22T14:37:50.172Z,42.97
2018-11-22T14:40:19.242Z,43.70
2018-11-22T14:42:50.154Z,43.47
2018-11-22T14:45:17.902Z,42.27
2018-11-22T14:47:46.508Z,41.93
2018-11-22T14:50:25.084Z,42.67
2018-11-22T14:52:55.202Z,41.63
2018-11-22T14:55:23.417Z,43.40
2018-11-22T14:57:50.977Z,43.00
2018-11-22T15:00:18.481Z,46.20
2018-11-22T15:02:49.926Z,43.68
2018-11-22T15:05:18.739Z,41.63
2018-11-22T15:07:48.509Z,44.37
2018-11-22T15:10:16.580Z,44.47
2018-11-22T15:12:45.285Z,46.17
2018-11-22T15:15:15.186Z,42.93
2018-11-22T15:17:42.682Z,46.83
2018-11-22T15:20:11.928Z,44.17
2018-11-22T15:22:40.137Z,43.73
2018-11-22T15:25:08.975Z,46.30
2018-11-22T15:27:36.429Z,44.50
2018-11-22T15:30:06.290Z,44.60
2018-11-22T15:32:33.839Z,42.30
2018-11-22T15:35:01.372Z,44.00
2018-11-22T15:37:28.871Z,45.17
2018-11-22T15:39:56.422Z,44.70
2018-11-22T15:42:23.897Z,43.33
2018-11-22T15:44:51.356Z,42.60
2018-11-22T15:47:18.971Z,42.37
2018-11-22T15:49:46.617Z,45.33
2018-11-22T15:52:14.946Z,46.43
2018-11-22T15:54:44.308Z,45.47
2018-11-22T15:57:11.929Z,45.37
2018-11-22T15:59:39.403Z,45.17
2018-11-22T16:02:06.899Z,45.40
2018-11-22T16:04:35.974Z,42.60
2018-11-22T16:07:04.275Z,45.03
2018-11-22T16:09:31.700Z,43.83
2018-11-22T16:18:24.142Z,42.63
2018-11-22T16:20:52.910Z,42.40
2018-11-22T16:23:24.341Z,45.57
2018-11-22T16:25:53.362Z,44.03
2018-11-22T16:28:22.076Z,42.17
2018-11-22T16:30:51.054Z,44.93
2018-11-22T16:33:19.234Z,44.10
2018-11-22T16:35:47.612Z,43.10
2018-11-22T16:38:16.074Z,44.53
2018-11-22T16:40:44.890Z,42.10
2018-11-22T16:43:13.381Z,43.93
2018-11-22T16:45:41.746Z,42.37
2018-11-22T16:48:12.100Z,43.37
2018-11-22T16:50:41.332Z,44.23
2018-11-22T16:53:09.977Z,44.27
2018-11-22T16:55:38.486Z,44.33
2018-11-22T16:58:08.546Z,45.87
2018-11-22T17:00:39.144Z,42.67
2018-11-22T17:03:12.988Z,44.57
2018-11-22T17:05:42.027Z,41.13
2018-11-22T17:08:10.748Z,43.67
2018-11-22T17:11:05.662Z,44.80
2018-11-22T17:13:44.012Z,44.93
2018-11-22T17:16:12.870Z,47.53
2018-11-22T17:18:41.145Z,46.67
2018-11-22T17:21:17.718Z,47.40
2018-11-22T17:23:47.756Z,45.90
2018-11-22T17:26:16.363Z,46.27
2018-11-22T17:31:59.346Z,46.00
2018-11-22T17:34:26.927Z,43.83
2018-11-22T17:36:54.832Z,45.50
2018-11-22T17:39:22.747Z,44.27
2018-11-22T17:41:50.237Z,46.50
2018-11-22T17:44:17.721Z,44.37
2018-11-22T17:46:45.110Z,46.77
2018-11-22T17:49:12.612Z,44.70
2018-11-22T17:51:40.056Z,45.90
2018-11-22T17:54:07.507Z,45.73
2018-11-22T17:56:34.992Z,47.07
2018-11-22T17:59:02.437Z,46.43
2018-11-22T18:01:29.892Z,46.70
2018-11-22T18:03:57.578Z,47.03
2018-11-22T18:06:25.830Z,44.47
2018-11-22T18:08:54.988Z,45.40
2018-11-22T18:11:22.660Z,45.57
2018-11-22T18:13:52.683Z,47.13
2018-11-22T18:16:20.305Z,46.10
2018-11-22T18:18:50.063Z,47.40
2018-11-22T18:21:18.550Z,46.53
2018-11-22T18:23:47.360Z,44.60
2018-11-22T18:29:29.986Z,46.47
2018-11-22T18:34:57.761Z,44.73
2018-11-22T18:37:33.498Z,44.83
2018-11-22T18:40:16.557Z,44.40
2018-11-22T18:42:49.964Z,43.90
2018-11-22T18:45:26.580Z,48.40
2018-11-22T18:48:06.398Z,43.50
2018-11-22T18:53:19.614Z,44.00
2018-11-22T18:55:51.681Z,45.30
2018-11-22T18:58:29.661Z,47.10
2018-11-22T19:01:01.288Z,47.53
2018-11-22T19:03:31.741Z,45.50
2018-11-22T19:09:00.185Z,44.60
2018-11-22T19:14:28.701Z,47.60
2018-11-22T19:17:02.178Z,45.00
2018-11-22T19:19:36.911Z,47.73
2018-11-22T19:22:10.348Z,48.40
2018-11-22T19:27:17.966Z,45.00
2018-11-22T19:29:48.105Z,46.30
2018-11-22T19:32:19.445Z,44.60
2018-11-22T19:34:58.482Z,45.20
2018-11-22T19:37:28.336Z,43.77
2018-11-22T19:40:11.164Z,47.33
2018-11-22T19:42:42.464Z,44.83
2018-11-22T19:45:14.079Z,46.27
2018-11-22T19:47:46.312Z,45.23
2018-11-22T19:50:20.453Z,47.07
2018-11-22T19:52:50.188Z,44.93
2018-11-22T19:55:20.710Z,43.87
2018-11-22T19:57:53.204Z,43.80
2018-11-22T20:00:24.825Z,44.93
2018-11-22T20:02:56.567Z,46.90
2018-11-22T20:05:27.138Z,44.47
2018-11-22T20:07:58.145Z,42.53
2018-11-22T20:10:28.608Z,44.73
2018-11-22T20:12:57.618Z,45.60
2018-11-22T20:15:26.222Z,47.10
2018-11-22T20:17:56.817Z,44.93
2018-11-22T20:20:27.040Z,47.10
2018-11-22T20:22:56.111Z,45.30
2018-11-22T20:25:26.004Z,43.40
2018-11-22T20:27:55.618Z,45.33
2018-11-22T20:30:30.600Z,44.97
2018-11-22T20:32:59.642Z,44.70
2018-11-22T20:35:28.730Z,43.27
2018-11-22T20:38:00.528Z,44.73
2018-11-22T20:40:31.067Z,44.67
2018-11-22T20:43:01.308Z,43.40
2018-11-22T20:45:30.726Z,47.00
2018-11-22T20:48:00.916Z,46.63
2018-11-22T20:50:30.156Z,47.10
2018-11-22T20:53:01.399Z,43.40
2018-11-22T20:55:33.367Z,44.58
2018-11-22T20:58:03.749Z,45.93
2018-11-22T21:00:35.881Z,45.37
2018-11-22T21:03:06.529Z,44.27
2018-11-22T21:05:37.192Z,45.03
2018-11-22T21:08:05.140Z,45.13
2018-11-22T21:10:33.342Z,45.67
2018-11-22T21:13:01.001Z,46.53
2018-11-22T21:15:30.015Z,46.27
2018-11-22T21:17:59.298Z,46.53
2018-11-22T21:20:28.751Z,46.73
2018-11-22T21:22:56.349Z,48.63
2018-11-22T21:25:24.941Z,49.40
2018-11-22T21:32:58.125Z,46.20
2018-11-22T21:35:26.416Z,47.33
2018-11-22T21:37:56.615Z,47.10
2018-11-22T21:40:27.037Z,46.37
2018-11-22T21:42:55.453Z,47.90
2018-11-22T21:45:24.365Z,45.10
2018-11-22T21:47:53.538Z,46.50
2018-11-22T21:50:22.622Z,47.33
2018-11-22T21:52:50.396Z,48.17
2018-11-22T21:55:20.179Z,46.47
2018-11-22T21:57:49.069Z,48.83
2018-11-22T22:00:20.667Z,48.27
2018-11-22T22:02:52.787Z,46.77
2018-11-22T22:05:17.998Z,48.30
2018-11-22T22:07:46.498Z,47.83
2018-11-22T22:10:14.616Z,50.33
2018-11-22T22:12:42.686Z,48.10
2018-11-22T22:15:12.851Z,51.90
2018-11-22T22:17:41.113Z,48.93
2018-11-22T22:20:11.982Z,48.50
2018-11-22T22:22:40.631Z,49.17
2018-11-22T22:25:09.844Z,49.40
2018-11-22T22:27:38.161Z,50.23
2018-11-22T22:30:07.650Z,50.37
2018-11-22T22:32:35.420Z,48.87
2018-11-22T22:35:03.237Z,50.87
2018-11-22T22:37:31.101Z,44.80
2018-11-22T22:40:03.594Z,47.87
2018-11-22T22:42:27.132Z,49.10
2018-11-22T22:44:54.925Z,50.63
2018-11-22T22:47:22.609Z,48.60
2018-11-22T22:49:50.334Z,50.67
2018-11-22T22:52:17.917Z,47.83
2018-11-22T22:54:45.594Z,51.67
2018-11-22T22:57:13.359Z,50.10
2018-11-22T22:59:41.077Z,49.60
2018-11-22T23:02:09.161Z,48.73
2018-11-22T23:04:36.807Z,51.60
2018-11-22T23:07:04.358Z,50.13
2018-11-22T23:09:31.973Z,52.00
2018-11-22T23:12:00.474Z,51.83
2018-11-22T23:14:28.912Z,48.33
2018-11-22T23:16:56.423Z,49.10
2018-11-22T23:19:24.244Z,50.37
2018-11-22T23:21:53.195Z,49.33
2018-11-22T23:24:20.795Z,48.73
2018-11-22T23:26:48.483Z,48.70
2018-11-22T23:29:16.123Z,50.87
2018-11-22T23:31:43.712Z,48.20
2018-11-22T23:34:11.331Z,48.73
2018-11-22T23:36:39.533Z,48.70
2018-11-22T23:39:09.067Z,46.57
2018-11-22T23:41:37.009Z,50.63
2018-11-22T23:44:04.995Z,49.17
2018-11-22T23:46:32.733Z,47.77
2018-11-22T23:49:00.409Z,47.03
2018-11-22T23:51:28.720Z,49.63
2018-11-22T23:53:56.421Z,48.40
2018-11-22T23:56:24.185Z,50.37
2018-11-22T23:58:52.015Z,47.70
